Terminal Aerodrome Forecast
Issued by NWS Cleveland, OH

Home | Current Version | Previous Version | Text Only | Print | Product List | Glossary Off
Versions: 1 2 3 4 5 6 7 8 9 10 11 12 13 14

759
FTUS41 KCLE 161728
TAFCAK
TAF
KCAK 161728Z 1618/1718 29010KT 6SM -SHSN BR SCT015 OVC035
      TEMPO 1618/1620 4SM -SHSN OVC015
     FM162000 29008KT P6SM BKN035
     FM170000 VRB03KT P6SM SCT070
     FM170500 VRB03KT P6SM OVC070
     FM171000 18007KT P6SM BKN070=

USA.gov is the U.S. government's official web portal to all federal, state and local government web resources and services.